createdAt,value
2023-08-20T00:01:32.284Z,78.78
2023-08-20T00:04:06.225Z,79.09
2023-08-20T00:06:36.645Z,79.23
2023-08-20T00:09:07.791Z,79.17
2023-08-20T00:11:37.327Z,79.47
2023-08-20T00:14:07.247Z,79.76
2023-08-20T00:16:37.709Z,80.23
2023-08-20T00:19:10.885Z,80.17
2023-08-20T00:21:45.649Z,80.23
2023-08-20T00:24:16.692Z,80.06
2023-08-20T00:26:46.905Z,79.99
2023-08-20T00:29:16.482Z,79.96
2023-08-20T00:31:46.099Z,79.92
2023-08-20T00:34:18.557Z,79.66
2023-08-20T00:36:47.897Z,79.63
2023-08-20T00:39:17.467Z,79.50
2023-08-20T00:41:47.027Z,79.31
2023-08-20T00:44:16.597Z,79.40
2023-08-20T00:46:46.213Z,78.75
2023-08-20T00:49:18.577Z,78.38
2023-08-20T00:51:49.425Z,76.98
2023-08-20T00:54:19.390Z,76.13
2023-08-20T00:56:49.130Z,75.10
2023-08-20T00:59:19.110Z,73.75
2023-08-20T01:01:48.775Z,73.25
2023-08-20T01:04:21.245Z,73.01
2023-08-20T01:06:55.602Z,72.09
2023-08-20T01:09:34.623Z,71.98
2023-08-20T01:12:07.200Z,71.73
2023-08-20T01:14:36.916Z,70.82
2023-08-20T01:17:07.002Z,71.21
2023-08-20T01:19:39.572Z,70.57
2023-08-20T01:22:21.681Z,70.53
2023-08-20T01:24:59.932Z,70.48
2023-08-20T01:27:47.868Z,70.25
2023-08-20T01:30:21.844Z,70.27
2023-08-20T01:32:55.820Z,69.99
2023-08-20T01:35:29.108Z,69.93
2023-08-20T01:38:05.931Z,69.88
2023-08-20T01:40:35.772Z,69.68
2023-08-20T01:43:05.330Z,69.97
2023-08-20T01:45:37.656Z,70.00
2023-08-20T01:48:07.812Z,70.09
2023-08-20T01:50:39.268Z,70.60
2023-08-20T01:53:08.858Z,70.21
2023-08-20T01:55:39.370Z,70.40
2023-08-20T01:58:08.935Z,70.37
2023-08-20T02:00:41.155Z,70.43
2023-08-20T02:03:11.257Z,70.56
2023-08-20T02:05:41.299Z,70.28
2023-08-20T02:08:12.669Z,70.63
2023-08-20T02:10:43.031Z,71.01
2023-08-20T02:13:12.589Z,71.00
2023-08-20T02:15:44.735Z,71.33
2023-08-20T02:18:14.319Z,71.12
2023-08-20T02:20:47.170Z,71.15
2023-08-20T02:23:17.008Z,71.49
2023-08-20T02:25:47.764Z,71.24
2023-08-20T02:28:17.380Z,71.82
2023-08-20T02:30:50.447Z,71.63
2023-08-20T02:33:20.076Z,71.79
2023-08-20T02:35:49.615Z,72.14
2023-08-20T02:38:19.183Z,72.24
2023-08-20T02:40:48.824Z,72.07
2023-08-20T02:43:18.375Z,72.33
2023-08-20T02:45:50.567Z,72.53
2023-08-20T02:48:21.546Z,72.31
2023-08-20T02:50:51.140Z,72.49
2023-08-20T02:53:20.725Z,72.70
2023-08-20T02:55:50.741Z,72.77
2023-08-20T02:58:20.496Z,72.89
2023-08-20T03:00:53.881Z,72.67
2023-08-20T03:03:23.864Z,72.61
2023-08-20T03:05:53.470Z,72.29
2023-08-20T03:08:23.211Z,72.32
2023-08-20T03:10:52.978Z,72.37
2023-08-20T03:13:26.294Z,72.59
2023-08-20T03:15:58.428Z,72.32
2023-08-20T03:18:28.195Z,72.97
2023-08-20T03:20:58.791Z,73.13
2023-08-20T03:23:28.499Z,73.26
2023-08-20T03:26:01.474Z,73.28
2023-08-20T03:28:30.967Z,73.54
2023-08-20T03:31:06.044Z,73.19
2023-08-20T03:33:40.087Z,73.45
2023-08-20T03:36:09.817Z,73.10
2023-08-20T03:38:39.370Z,73.25
2023-08-20T03:41:08.990Z,73.43
2023-08-20T03:43:39.342Z,73.58
2023-08-20T03:46:12.115Z,73.34
2023-08-20T03:48:41.808Z,73.42
2023-08-20T03:51:11.420Z,73.52
2023-08-20T03:53:40.968Z,73.56
2023-08-20T03:56:10.680Z,73.66
2023-08-20T03:58:40.231Z,73.84
2023-08-20T04:01:12.792Z,73.61
2023-08-20T04:03:42.401Z,73.67
2023-08-20T04:06:12.013Z,74.04
2023-08-20T04:08:41.587Z,74.30
2023-08-20T04:11:11.132Z,74.67
2023-08-20T04:13:44.874Z,74.93
2023-08-20T04:16:17.571Z,75.05
2023-08-20T04:18:47.153Z,75.52
2023-08-20T04:21:16.727Z,75.25
2023-08-20T04:23:46.274Z,74.97
2023-08-20T04:26:15.916Z,75.23
2023-08-20T04:28:46.064Z,75.56
2023-08-20T04:31:18.310Z,75.66
2023-08-20T04:33:54.333Z,75.25
2023-08-20T04:36:30.616Z,75.12
2023-08-20T04:39:00.187Z,75.67
2023-08-20T04:41:32.978Z,75.86
2023-08-20T04:44:02.537Z,76.02
2023-08-20T04:46:34.874Z,76.15
2023-08-20T04:49:04.560Z,76.39
2023-08-20T04:51:34.138Z,75.98
2023-08-20T04:54:03.742Z,75.76
2023-08-20T04:56:33.351Z,75.82
2023-08-20T04:59:03.033Z,76.22
2023-08-20T05:02:01.133Z,76.38
2023-08-20T05:04:42.967Z,76.26
2023-08-20T05:07:12.536Z,76.15
2023-08-20T05:09:42.136Z,76.07
2023-08-20T05:12:11.992Z,76.29
2023-08-20T05:14:41.616Z,76.38
2023-08-20T05:17:13.820Z,76.40
2023-08-20T05:19:43.376Z,76.18
2023-08-20T05:22:13.135Z,76.66
2023-08-20T05:24:42.988Z,76.78
2023-08-20T05:27:15.610Z,76.86
2023-08-20T05:29:47.654Z,76.11
2023-08-20T05:32:20.905Z,76.12
2023-08-20T05:34:50.577Z,75.73
2023-08-20T05:37:20.256Z,75.37
2023-08-20T05:39:50.105Z,75.21
2023-08-20T05:42:20.615Z,75.37
2023-08-20T05:44:57.038Z,74.85
2023-08-20T05:47:32.955Z,74.78
2023-08-20T05:50:03.452Z,74.96
2023-08-20T05:52:33.205Z,74.83
2023-08-20T05:55:02.924Z,74.23
2023-08-20T05:57:33.874Z,74.36
2023-08-20T06:00:03.496Z,74.18
2023-08-20T06:02:45.440Z,73.60
2023-08-20T06:05:15.221Z,73.46
2023-08-20T06:07:44.798Z,73.34
2023-08-20T06:10:14.629Z,73.17
2023-08-20T06:12:44.222Z,73.25
2023-08-20T06:15:25.403Z,73.75
2023-08-20T06:17:57.584Z,73.57
2023-08-20T06:20:27.188Z,72.85
2023-08-20T06:22:56.742Z,72.85
2023-08-20T06:25:26.398Z,71.90
2023-08-20T06:27:55.957Z,72.18
2023-08-20T06:30:25.511Z,72.35
2023-08-20T06:32:57.942Z,72.08
2023-08-20T06:35:27.596Z,72.15
2023-08-20T06:37:57.156Z,72.23
2023-08-20T06:40:26.738Z,71.83
2023-08-20T06:42:56.296Z,71.42
2023-08-20T06:45:25.891Z,71.25
2023-08-20T06:47:58.862Z,71.27
2023-08-20T06:50:28.484Z,70.84
2023-08-20T06:52:58.052Z,70.72
2023-08-20T06:55:27.631Z,70.60
2023-08-20T06:57:57.177Z,71.10
2023-08-20T07:00:26.878Z,70.77
2023-08-20T07:02:59.083Z,70.82
2023-08-20T07:05:28.864Z,71.17
2023-08-20T07:07:58.460Z,70.93
2023-08-20T07:10:28.100Z,70.23
2023-08-20T07:12:57.651Z,69.79
2023-08-20T07:15:27.239Z,69.51
2023-08-20T07:17:59.422Z,69.53
2023-08-20T07:20:29.049Z,70.29
2023-08-20T07:22:58.623Z,69.60
2023-08-20T07:25:28.504Z,69.12
2023-08-20T07:28:00.611Z,69.72
2023-08-20T07:30:32.464Z,70.14
2023-08-20T07:33:06.478Z,70.15
2023-08-20T07:35:36.879Z,69.26
2023-08-20T07:38:07.031Z,69.19
2023-08-20T07:40:36.599Z,68.88
2023-08-20T07:43:06.279Z,68.68
2023-08-20T07:45:35.871Z,69.04
2023-08-20T07:48:08.986Z,68.91
2023-08-20T07:50:38.683Z,68.25
2023-08-20T07:53:08.302Z,68.28
2023-08-20T07:55:38.181Z,68.97
2023-08-20T07:58:08.020Z,68.57
2023-08-20T08:00:37.596Z,68.89
2023-08-20T08:03:11.023Z,69.05
2023-08-20T08:05:41.026Z,69.01
2023-08-20T08:08:10.885Z,69.11
2023-08-20T08:10:40.476Z,68.48
2023-08-20T08:13:11.483Z,69.19
2023-08-20T08:15:41.470Z,69.23
2023-08-20T08:18:13.807Z,68.74
2023-08-20T08:20:43.558Z,68.86
2023-08-20T08:23:13.230Z,67.84
2023-08-20T08:25:43.817Z,67.89
2023-08-20T08:28:13.461Z,68.60
2023-08-20T08:30:43.782Z,68.41
2023-08-20T08:33:15.971Z,66.91
2023-08-20T08:35:45.581Z,68.00
2023-08-20T08:38:15.174Z,69.12
2023-08-20T08:40:46.534Z,66.76
2023-08-20T08:43:18.512Z,66.42
2023-08-20T08:45:51.689Z,67.76
2023-08-20T08:48:25.294Z,66.79
2023-08-20T08:50:56.090Z,67.10
2023-08-20T08:53:28.726Z,66.32
2023-08-20T08:55:58.686Z,66.27
2023-08-20T08:58:28.244Z,65.46
2023-08-20T09:00:58.066Z,67.09
2023-08-20T09:03:30.309Z,67.71
2023-08-20T09:06:02.496Z,66.46
2023-08-20T09:08:33.427Z,67.25
2023-08-20T09:11:05.765Z,68.21
2023-08-20T09:13:40.179Z,66.95
2023-08-20T09:16:10.951Z,67.28
2023-08-20T09:18:48.925Z,65.55
2023-08-20T09:21:18.459Z,67.53
2023-08-20T09:23:49.688Z,66.54
2023-08-20T09:26:19.248Z,67.09
2023-08-20T09:28:50.191Z,66.40
2023-08-20T09:31:19.856Z,65.31
2023-08-20T09:33:56.370Z,66.49
2023-08-20T09:36:34.634Z,66.90
2023-08-20T09:39:05.141Z,65.54
2023-08-20T09:41:34.845Z,66.62
2023-08-20T09:44:07.809Z,65.68
2023-08-20T09:46:39.274Z,65.33
2023-08-20T09:49:15.227Z,64.35
2023-08-20T09:51:46.364Z,64.80
2023-08-20T09:54:23.443Z,63.73
2023-08-20T09:56:58.237Z,64.25
2023-08-20T09:59:28.391Z,63.82
2023-08-20T10:01:59.632Z,63.77
2023-08-20T10:04:32.918Z,64.35
2023-08-20T10:07:03.049Z,63.09
2023-08-20T10:09:33.171Z,63.46
2023-08-20T10:12:04.471Z,63.21
2023-08-20T10:14:34.077Z,63.11
2023-08-20T10:17:09.534Z,62.49
2023-08-20T10:19:42.610Z,63.00
2023-08-20T10:22:12.685Z,62.80
2023-08-20T10:24:51.065Z,62.09
2023-08-20T10:27:31.477Z,62.21
2023-08-20T10:30:02.633Z,62.70
2023-08-20T10:32:54.532Z,60.84
2023-08-20T10:35:31.538Z,61.74
2023-08-20T10:38:03.338Z,61.39
2023-08-20T10:40:51.293Z,60.63
2023-08-20T10:43:36.598Z,60.95
2023-08-20T10:46:10.865Z,60.66
2023-08-20T10:48:42.473Z,60.92
2023-08-20T10:51:18.693Z,60.30
2023-08-20T10:54:08.056Z,60.36
2023-08-20T10:56:47.889Z,60.75
2023-08-20T10:59:19.259Z,60.14
2023-08-20T11:01:49.759Z,59.58
2023-08-20T11:04:20.620Z,60.15
2023-08-20T11:06:56.575Z,60.52
2023-08-20T11:09:27.182Z,59.46
2023-08-20T11:11:57.108Z,59.48
2023-08-20T11:14:26.798Z,59.88
2023-08-20T11:16:56.624Z,59.40
2023-08-20T11:19:27.446Z,59.14
2023-08-20T11:21:59.658Z,58.80
2023-08-20T11:24:33.553Z,59.32
2023-08-20T11:27:03.245Z,58.56
2023-08-20T11:29:32.837Z,57.80
2023-08-20T11:32:06.736Z,58.46
2023-08-20T11:34:36.689Z,57.06
2023-08-20T11:37:08.921Z,56.19
2023-08-20T11:39:40.586Z,57.47
2023-08-20T11:42:10.337Z,57.61
2023-08-20T11:44:47.355Z,57.34
2023-08-20T11:47:18.159Z,57.05
2023-08-20T11:49:47.967Z,57.32
2023-08-20T11:52:22.965Z,56.53
2023-08-20T11:54:52.595Z,56.66
2023-08-20T11:57:22.404Z,55.94
2023-08-20T11:59:51.968Z,57.39
2023-08-20T12:02:39.264Z,56.89
2023-08-20T12:05:11.053Z,55.96
2023-08-20T12:07:43.328Z,56.54
2023-08-20T12:10:25.933Z,55.58
2023-08-20T12:12:55.625Z,55.34
2023-08-20T12:15:26.002Z,54.70
2023-08-20T12:18:06.201Z,54.53
2023-08-20T12:20:37.991Z,55.34
2023-08-20T12:23:10.746Z,54.93
2023-08-20T12:25:40.545Z,52.72
2023-08-20T12:28:10.369Z,54.65
2023-08-20T12:30:40.362Z,53.24
2023-08-20T12:33:10.396Z,54.10
2023-08-20T12:35:40.036Z,53.20
2023-08-20T12:38:12.751Z,53.03
2023-08-20T12:40:42.460Z,53.29
2023-08-20T12:43:12.078Z,54.15
2023-08-20T12:45:41.786Z,53.82
2023-08-20T12:48:11.329Z,54.03
2023-08-20T12:50:40.960Z,54.53
2023-08-20T12:53:14.179Z,54.04
2023-08-20T12:55:43.779Z,54.72
2023-08-20T12:58:13.324Z,53.04
2023-08-20T13:00:43.269Z,54.73
2023-08-20T13:03:14.210Z,52.51
2023-08-20T13:05:44.548Z,52.88
2023-08-20T13:08:17.499Z,54.21
2023-08-20T13:10:54.353Z,53.49
2023-08-20T13:13:25.354Z,54.28
2023-08-20T13:15:56.036Z,53.51
2023-08-20T13:18:27.647Z,53.71
2023-08-20T13:20:57.232Z,54.05
2023-08-20T13:23:29.400Z,53.46
2023-08-20T13:25:59.055Z,53.59
2023-08-20T13:28:28.700Z,53.12
2023-08-20T13:30:58.402Z,53.26
2023-08-20T13:33:28.031Z,53.35
2023-08-20T13:35:58.677Z,52.55
2023-08-20T13:38:30.867Z,53.21
2023-08-20T13:41:00.482Z,53.20
2023-08-20T13:43:30.138Z,52.92
2023-08-20T13:45:59.723Z,52.88
2023-08-20T13:48:29.343Z,53.05
2023-08-20T13:50:59.025Z,52.71
2023-08-20T13:53:31.260Z,52.83
2023-08-20T13:56:00.962Z,52.99
2023-08-20T13:58:30.558Z,52.51
2023-08-20T14:01:00.353Z,52.27
2023-08-20T14:03:30.691Z,52.34
2023-08-20T14:06:00.270Z,52.48
2023-08-20T14:08:32.471Z,53.60
2023-08-20T14:11:03.506Z,53.26
2023-08-20T14:13:33.410Z,52.53
2023-08-20T14:16:03.557Z,52.27
2023-08-20T14:18:33.218Z,52.86
2023-08-20T14:21:03.925Z,52.72
2023-08-20T14:23:36.278Z,52.69
2023-08-20T14:26:05.670Z,53.76
2023-08-20T14:28:35.248Z,53.76
2023-08-20T14:31:17.876Z,53.52
2023-08-20T14:33:47.511Z,53.53
2023-08-20T14:36:17.190Z,53.96
2023-08-20T14:38:49.346Z,54.32
2023-08-20T14:41:19.010Z,53.71
2023-08-20T14:43:48.592Z,54.19
2023-08-20T14:46:18.198Z,53.03
2023-08-20T14:48:47.782Z,53.18
2023-08-20T14:51:17.484Z,52.80
2023-08-20T14:53:49.668Z,53.13
2023-08-20T14:56:19.272Z,53.25
2023-08-20T14:58:48.949Z,53.81
2023-08-20T15:01:18.948Z,53.57
2023-08-20T15:03:48.627Z,52.61
2023-08-20T15:06:22.638Z,52.71
2023-08-20T15:08:54.853Z,52.84
2023-08-20T15:11:24.524Z,53.31
2023-08-20T15:13:54.145Z,52.80
2023-08-20T15:16:23.898Z,53.88
2023-08-20T15:18:53.544Z,52.69
2023-08-20T15:21:23.228Z,53.07
2023-08-20T15:23:55.724Z,53.79
2023-08-20T15:26:25.105Z,54.02
2023-08-20T15:28:54.660Z,54.07
2023-08-20T15:31:24.376Z,53.69
2023-08-20T15:33:54.558Z,53.78
2023-08-20T15:36:24.581Z,53.76
2023-08-20T15:38:56.812Z,53.90
2023-08-20T15:41:26.393Z,53.35
2023-08-20T15:43:56.024Z,53.74
2023-08-20T15:46:27.093Z,53.21
2023-08-20T15:48:57.142Z,53.43
2023-08-20T15:51:26.843Z,53.95
2023-08-20T15:53:59.416Z,53.84
2023-08-20T15:56:29.425Z,53.74
2023-08-20T15:58:59.229Z,53.31
2023-08-20T16:01:29.512Z,54.61
2023-08-20T16:03:59.348Z,54.12
2023-08-20T16:06:29.154Z,54.00
2023-08-20T16:09:01.429Z,53.71
2023-08-20T16:11:31.085Z,53.83
2023-08-20T16:14:00.757Z,53.39
2023-08-20T16:16:32.784Z,53.24
2023-08-20T16:19:02.632Z,54.10
2023-08-20T16:21:32.263Z,53.41
2023-08-20T16:24:05.491Z,54.88
2023-08-20T16:26:35.686Z,54.55
2023-08-20T16:29:05.456Z,54.51
2023-08-20T16:31:35.568Z,55.10
2023-08-20T16:34:05.216Z,54.51
2023-08-20T16:36:35.451Z,53.64
2023-08-20T16:39:07.743Z,53.80
2023-08-20T16:41:37.144Z,53.55
2023-08-20T16:44:06.966Z,54.32
2023-08-20T16:46:38.637Z,54.74
2023-08-20T16:49:08.321Z,54.94
2023-08-20T16:51:37.984Z,54.88
2023-08-20T16:54:10.465Z,54.57
2023-08-20T16:56:40.187Z,54.48
2023-08-20T16:59:09.815Z,54.21
2023-08-20T17:01:39.464Z,54.19
2023-08-20T17:04:09.225Z,55.14
2023-08-20T17:06:38.867Z,55.49
2023-08-20T17:09:11.133Z,54.82
2023-08-20T17:11:40.559Z,55.11
2023-08-20T17:14:10.674Z,54.47
2023-08-20T17:16:40.880Z,55.37
2023-08-20T17:19:10.568Z,55.54
2023-08-20T17:21:41.928Z,56.13
2023-08-20T17:24:14.135Z,55.76
2023-08-20T17:26:43.919Z,56.32
2023-08-20T17:29:13.622Z,56.07
2023-08-20T17:31:43.937Z,56.57
2023-08-20T17:34:13.552Z,56.49
2023-08-20T17:36:43.170Z,56.28
2023-08-20T17:39:16.716Z,56.42
2023-08-20T17:41:46.579Z,56.87
2023-08-20T17:44:16.215Z,57.12
2023-08-20T17:46:46.938Z,56.92
2023-08-20T17:49:18.188Z,57.25
2023-08-20T17:51:48.093Z,57.53
2023-08-20T17:54:20.517Z,56.93
2023-08-20T17:56:50.117Z,56.93
2023-08-20T17:59:19.765Z,57.68
2023-08-20T18:01:49.418Z,57.61
2023-08-20T18:04:19.115Z,57.31
2023-08-20T18:06:48.701Z,57.79
2023-08-20T18:09:21.130Z,57.58
2023-08-20T18:11:50.715Z,57.21
2023-08-20T18:14:20.401Z,57.53
2023-08-20T18:16:50.199Z,58.13
2023-08-20T18:19:19.828Z,57.96
2023-08-20T18:21:49.868Z,57.92
2023-08-20T18:24:22.096Z,57.70
2023-08-20T18:26:51.680Z,57.74
2023-08-20T18:29:21.224Z,58.32
2023-08-20T18:31:52.158Z,58.23
2023-08-20T18:34:22.037Z,57.66
2023-08-20T18:36:52.021Z,57.91
2023-08-20T18:39:24.172Z,57.56
2023-08-20T18:41:54.225Z,57.83
2023-08-20T18:44:23.923Z,57.94
2023-08-20T18:46:53.602Z,57.78
2023-08-20T18:49:23.236Z,57.76
2023-08-20T18:51:53.083Z,57.52
2023-08-20T18:54:25.371Z,57.35
2023-08-20T18:56:54.744Z,57.72
2023-08-20T18:59:24.340Z,58.25
2023-08-20T19:01:54.228Z,58.13
2023-08-20T19:04:23.801Z,57.76
2023-08-20T19:06:54.174Z,57.90
2023-08-20T19:09:26.313Z,58.21
2023-08-20T19:11:57.316Z,58.33
2023-08-20T19:14:27.110Z,58.21
2023-08-20T19:16:56.690Z,58.99
2023-08-20T19:19:26.285Z,63.02
2023-08-20T19:21:55.926Z,61.94
2023-08-20T19:24:28.153Z,64.06
2023-08-20T19:26:58.637Z,63.15
2023-08-20T19:29:28.366Z,61.97
2023-08-20T19:31:58.018Z,63.78
2023-08-20T19:34:28.167Z,63.47
2023-08-20T19:36:57.849Z,63.39
2023-08-20T19:39:30.004Z,62.80
2023-08-20T19:41:59.573Z,63.82
2023-08-20T19:44:29.152Z,62.68
2023-08-20T19:46:58.706Z,63.59
2023-08-20T19:49:28.286Z,63.67
2023-08-20T19:51:57.813Z,63.63
2023-08-20T19:54:30.079Z,63.54
2023-08-20T19:56:59.435Z,63.58
2023-08-20T19:59:29.079Z,63.63
2023-08-20T20:01:58.714Z,63.27
2023-08-20T20:04:29.542Z,63.04
2023-08-20T20:07:09.429Z,63.67
2023-08-20T20:09:49.244Z,63.71
2023-08-20T20:12:18.864Z,63.83
2023-08-20T20:14:48.574Z,64.06
2023-08-20T20:17:18.198Z,63.66
2023-08-20T20:19:48.363Z,63.88
2023-08-20T20:22:17.967Z,63.71
2023-08-20T20:24:50.837Z,62.70
2023-08-20T20:27:20.438Z,63.23
2023-08-20T20:29:50.031Z,64.07
2023-08-20T20:32:20.444Z,63.41
2023-08-20T20:34:50.001Z,63.69
2023-08-20T20:37:20.031Z,63.54
2023-08-20T20:39:52.163Z,64.05
2023-08-20T20:42:21.740Z,63.95
2023-08-20T20:44:51.798Z,64.05
2023-08-20T20:47:21.501Z,63.69
2023-08-20T20:49:51.174Z,63.79
2023-08-20T20:52:23.358Z,63.94
2023-08-20T20:54:55.614Z,64.06
2023-08-20T20:57:25.419Z,64.39
2023-08-20T20:59:55.245Z,64.01
2023-08-20T21:02:24.889Z,63.94
2023-08-20T21:04:54.486Z,64.54
2023-08-20T21:07:24.042Z,64.62
2023-08-20T21:09:57.028Z,63.94
2023-08-20T21:12:26.779Z,64.72
2023-08-20T21:14:56.343Z,64.05
2023-08-20T21:17:26.034Z,64.78
2023-08-20T21:19:58.661Z,64.30
2023-08-20T21:22:28.877Z,64.08
2023-08-20T21:25:01.080Z,63.77
2023-08-20T21:27:30.686Z,63.75
2023-08-20T21:30:00.358Z,63.08
2023-08-20T21:32:31.770Z,63.40
2023-08-20T21:35:06.679Z,63.25
2023-08-20T21:37:36.326Z,62.27
2023-08-20T21:40:09.798Z,62.53
2023-08-20T21:42:39.650Z,62.55
2023-08-20T21:45:10.670Z,62.10
2023-08-20T21:47:48.121Z,61.92
2023-08-20T21:50:19.052Z,62.50
2023-08-20T21:52:49.037Z,62.22
2023-08-20T21:55:21.396Z,62.38
2023-08-20T21:57:51.020Z,62.33
2023-08-20T22:00:20.778Z,63.15
2023-08-20T22:02:51.637Z,63.11
2023-08-20T22:05:25.629Z,63.40
2023-08-20T22:07:55.330Z,63.55
2023-08-20T22:10:27.890Z,63.71
2023-08-20T22:12:57.632Z,63.76
2023-08-20T22:15:27.379Z,63.69
2023-08-20T22:17:56.990Z,63.47
2023-08-20T22:20:26.663Z,63.72
2023-08-20T22:22:56.726Z,63.90
2023-08-20T22:25:28.913Z,63.23
2023-08-20T22:27:58.498Z,63.25
2023-08-20T22:30:28.092Z,62.75
2023-08-20T22:32:58.136Z,62.73
2023-08-20T22:35:27.831Z,62.55
2023-08-20T22:38:09.334Z,62.05
2023-08-20T22:40:43.510Z,61.41
2023-08-20T22:43:13.287Z,61.23
2023-08-20T22:45:42.884Z,61.51
2023-08-20T22:48:12.496Z,60.86
2023-08-20T22:50:42.148Z,60.74
2023-08-20T22:53:11.757Z,60.13
2023-08-20T22:55:43.932Z,60.76
2023-08-20T22:58:13.523Z,60.12
2023-08-20T23:00:43.205Z,60.15
2023-08-20T23:03:12.854Z,59.27
2023-08-20T23:05:42.519Z,59.68
2023-08-20T23:08:12.087Z,60.10
2023-08-20T23:10:44.252Z,59.59
2023-08-20T23:13:13.882Z,59.32
2023-08-20T23:15:44.990Z,59.87
2023-08-20T23:18:14.774Z,59.39
2023-08-20T23:20:44.385Z,59.64
2023-08-20T23:23:14.071Z,59.69
2023-08-20T23:25:46.747Z,59.52
2023-08-20T23:28:16.353Z,60.26
2023-08-20T23:30:47.082Z,61.07
2023-08-20T23:33:17.206Z,59.90
2023-08-20T23:35:47.136Z,60.31
2023-08-20T23:38:17.109Z,60.42
2023-08-20T23:40:49.297Z,60.74
2023-08-20T23:43:18.924Z,60.69
2023-08-20T23:45:48.468Z,61.11
2023-08-20T23:48:18.058Z,61.07
2023-08-20T23:50:47.656Z,61.58
2023-08-20T23:53:32.146Z,61.04
2023-08-20T23:56:04.378Z,61.45
2023-08-20T23:58:34.034Z,61.47
